Terminal Aerodrome Forecast
Issued by NWS Tampa Bay Area, FL

Home | Current Version | Previous Version | Text Only | Print | Product List | Glossary On
Versions: 1 2 3 4 5 6 7 8 9 10 11 12 13 14 15 16 17 18 19 20 21 22 23 24 25 26
000
FTUS42 KTBW 210500
TAFFMY
TAF
KFMY 210529Z 2106/2206 04007KT P6SM FEW025 SCT030
      TEMPO 2106/2108 BKN030
     FM211000 03005KT P6SM FEW020 SCT250
     FM211900 32009KT P6SM SCT250
     FM212300 30011KT P6SM SCT045
     FM220300 03006KT P6SM SCT040=

USA.gov is the U.S. government's official web portal to all federal, state and local government web resources and services.